sensor_id;sensor_type;location;lat;lon;timestamp;pressure;altitude;pressure_sealevel;temperature;humidity
17785;BME280;9016;53.582;10.062;2023-03-21T00:02:22;101483.16;;;10.87;88.71
17785;BME280;9016;53.582;10.062;2023-03-21T00:04:50;101487.19;;;10.95;88.05
17785;BME280;9016;53.582;10.062;2023-03-21T00:07:22;101488.59;;;10.85;86.96
17785;BME280;9016;53.582;10.062;2023-03-21T00:09:52;101488.78;;;10.81;87.91
17785;BME280;9016;53.582;10.062;2023-03-21T00:12:30;101488.69;;;10.65;89.21
17785;BME280;9016;53.582;10.062;2023-03-21T00:14:59;101476.63;;;10.75;89.59
17785;BME280;9016;53.582;10.062;2023-03-21T00:17:30;101471.97;;;10.80;89.39
17785;BME280;9016;53.582;10.062;2023-03-21T00:19:59;101479.50;;;10.89;89.11
17785;BME280;9016;53.582;10.062;2023-03-21T00:22:27;101481.00;;;10.95;88.75
17785;BME280;9016;53.582;10.062;2023-03-21T00:24:55;101477.63;;;10.91;89.23
17785;BME280;9016;53.582;10.062;2023-03-21T00:27:23;101479.34;;;10.92;88.86
17785;BME280;9016;53.582;10.062;2023-03-21T00:30:13;101475.03;;;10.90;88.81
17785;BME280;9016;53.582;10.062;2023-03-21T00:32:41;101470.16;;;10.98;88.90
17785;BME280;9016;53.582;10.062;2023-03-21T00:35:22;101471.63;;;10.86;88.68
17785;BME280;9016;53.582;10.062;2023-03-21T00:38:10;101469.47;;;10.94;89.29
17785;BME280;9016;53.582;10.062;2023-03-21T00:40:38;101471.75;;;11.02;88.89
17785;BME280;9016;53.582;10.062;2023-03-21T00:43:14;101473.22;;;10.90;89.43
17785;BME280;9016;53.582;10.062;2023-03-21T00:45:46;101466.72;;;10.96;89.29
17785;BME280;9016;53.582;10.062;2023-03-21T00:48:14;101464.53;;;11.04;89.02
17785;BME280;9016;53.582;10.062;2023-03-21T00:50:43;101466.50;;;11.01;89.67
17785;BME280;9016;53.582;10.062;2023-03-21T00:53:12;101453.78;;;11.06;89.19
17785;BME280;9016;53.582;10.062;2023-03-21T00:55:43;101458.19;;;11.07;88.97
17785;BME280;9016;53.582;10.062;2023-03-21T00:58:11;101454.03;;;11.01;89.05
17785;BME280;9016;53.582;10.062;2023-03-21T01:00:40;101457.41;;;11.05;89.07
17785;BME280;9016;53.582;10.062;2023-03-21T01:03:11;101457.44;;;11.03;89.91
17785;BME280;9016;53.582;10.062;2023-03-21T01:05:51;101446.47;;;11.09;89.52
17785;BME280;9016;53.582;10.062;2023-03-21T01:08:34;101450.50;;;11.01;90.38
17785;BME280;9016;53.582;10.062;2023-03-21T01:11:19;101451.81;;;11.09;90.09
17785;BME280;9016;53.582;10.062;2023-03-21T01:13:48;101451.34;;;11.18;90.21
17785;BME280;9016;53.582;10.062;2023-03-21T01:16:25;101441.53;;;11.19;90.30
17785;BME280;9016;53.582;10.062;2023-03-21T01:18:54;101446.25;;;11.14;90.26
17785;BME280;9016;53.582;10.062;2023-03-21T01:21:22;101446.47;;;11.09;90.19
17785;BME280;9016;53.582;10.062;2023-03-21T01:23:50;101435.59;;;11.14;90.51
17785;BME280;9016;53.582;10.062;2023-03-21T01:26:19;101440.38;;;11.24;89.68
17785;BME280;9016;53.582;10.062;2023-03-21T01:28:47;101440.38;;;11.24;88.89
17785;BME280;9016;53.582;10.062;2023-03-21T01:31:16;101447.41;;;11.25;89.28
17785;BME280;9016;53.582;10.062;2023-03-21T01:33:44;101444.91;;;11.22;89.54
17785;BME280;9016;53.582;10.062;2023-03-21T01:36:15;101436.03;;;11.22;89.07
17785;BME280;9016;53.582;10.062;2023-03-21T01:38:48;101439.09;;;11.14;89.40
17785;BME280;9016;53.582;10.062;2023-03-21T01:41:20;101440.59;;;11.20;89.40
17785;BME280;9016;53.582;10.062;2023-03-21T01:44:03;101436.69;;;11.10;90.38
17785;BME280;9016;53.582;10.062;2023-03-21T01:46:36;101441.16;;;11.26;90.32
17785;BME280;9016;53.582;10.062;2023-03-21T01:49:19;101442.16;;;11.24;89.63
17785;BME280;9016;53.582;10.062;2023-03-21T01:51:55;101438.41;;;11.11;89.53
17785;BME280;9016;53.582;10.062;2023-03-21T01:54:38;101435.03;;;11.07;89.84
17785;BME280;9016;53.582;10.062;2023-03-21T01:57:10;101430.78;;;11.03;90.76
17785;BME280;9016;53.582;10.062;2023-03-21T01:59:42;101431.44;;;11.08;90.95
17785;BME280;9016;53.582;10.062;2023-03-21T02:02:14;101426.50;;;11.18;91.38
17785;BME280;9016;53.582;10.062;2023-03-21T02:04:43;101423.75;;;11.19;90.64
17785;BME280;9016;53.582;10.062;2023-03-21T02:07:23;101424.13;;;11.12;90.26
17785;BME280;9016;53.582;10.062;2023-03-21T02:09:52;101421.69;;;11.07;91.15
17785;BME280;9016;53.582;10.062;2023-03-21T02:12:21;101423.53;;;11.07;90.88
17785;BME280;9016;53.582;10.062;2023-03-21T02:14:51;101424.59;;;11.20;90.46
17785;BME280;9016;53.582;10.062;2023-03-21T02:17:25;101421.69;;;11.24;90.46
17785;BME280;9016;53.582;10.062;2023-03-21T02:20:23;101413.00;;;11.21;90.52
17785;BME280;9016;53.582;10.062;2023-03-21T02:23:30;101417.63;;;11.17;90.49
17785;BME280;9016;53.582;10.062;2023-03-21T02:26:38;101410.00;;;11.10;90.92
17785;BME280;9016;53.582;10.062;2023-03-21T02:32:37;101406.69;;;11.22;91.00
17785;BME280;9016;53.582;10.062;2023-03-21T02:35:19;101401.31;;;11.23;90.96
17785;BME280;9016;53.582;10.062;2023-03-21T02:37:55;101407.19;;;11.13;90.76
17785;BME280;9016;53.582;10.062;2023-03-21T02:40:30;101405.16;;;11.18;91.30
17785;BME280;9016;53.582;10.062;2023-03-21T02:43:04;101403.81;;;11.09;91.14
17785;BME280;9016;53.582;10.062;2023-03-21T02:45:50;101404.44;;;11.14;92.11
17785;BME280;9016;53.582;10.062;2023-03-21T02:48:25;101397.56;;;11.10;92.02
17785;BME280;9016;53.582;10.062;2023-03-21T02:51:12;101401.69;;;11.16;92.67
17785;BME280;9016;53.582;10.062;2023-03-21T02:53:48;101400.75;;;11.17;91.98
17785;BME280;9016;53.582;10.062;2023-03-21T02:56:39;101392.56;;;11.20;92.09
17785;BME280;9016;53.582;10.062;2023-03-21T02:59:09;101393.75;;;11.14;92.33
17785;BME280;9016;53.582;10.062;2023-03-21T03:01:37;101398.16;;;11.15;92.30
17785;BME280;9016;53.582;10.062;2023-03-21T03:04:17;101398.56;;;11.25;92.37
17785;BME280;9016;53.582;10.062;2023-03-21T03:07:02;101394.63;;;11.32;91.53
17785;BME280;9016;53.582;10.062;2023-03-21T03:09:40;101392.56;;;11.20;91.42
17785;BME280;9016;53.582;10.062;2023-03-21T03:12:18;101393.31;;;11.23;92.08
17785;BME280;9016;53.582;10.062;2023-03-21T03:14:52;101382.94;;;11.17;92.49
17785;BME280;9016;53.582;10.062;2023-03-21T03:17:46;101388.81;;;11.24;92.28
17785;BME280;9016;53.582;10.062;2023-03-21T03:20:22;101382.53;;;11.25;92.48
17785;BME280;9016;53.582;10.062;2023-03-21T03:22:56;101384.94;;;11.29;92.29
17785;BME280;9016;53.582;10.062;2023-03-21T03:25:33;101378.41;;;11.19;92.08
17785;BME280;9016;53.582;10.062;2023-03-21T03:28:10;101374.06;;;11.17;93.20
17785;BME280;9016;53.582;10.062;2023-03-21T03:30:40;101372.97;;;11.21;92.41
17785;BME280;9016;53.582;10.062;2023-03-21T03:33:29;101372.50;;;11.13;92.66
17785;BME280;9016;53.582;10.062;2023-03-21T03:35:59;101367.81;;;11.18;93.11
17785;BME280;9016;53.582;10.062;2023-03-21T03:38:33;101362.13;;;11.24;92.54
17785;BME280;9016;53.582;10.062;2023-03-21T03:41:09;101370.03;;;11.25;92.01
17785;BME280;9016;53.582;10.062;2023-03-21T03:43:44;101370.78;;;11.29;91.39
17785;BME280;9016;53.582;10.062;2023-03-21T03:46:18;101369.72;;;11.31;91.78
17785;BME280;9016;53.582;10.062;2023-03-21T03:48:48;101368.84;;;11.31;91.76
17785;BME280;9016;53.582;10.062;2023-03-21T03:51:22;101360.16;;;11.27;91.89
17785;BME280;9016;53.582;10.062;2023-03-21T03:53:56;101368.53;;;11.37;92.74
17785;BME280;9016;53.582;10.062;2023-03-21T03:56:29;101380.41;;;11.31;91.74
17785;BME280;9016;53.582;10.062;2023-03-21T03:58:57;101380.31;;;11.33;91.01
17785;BME280;9016;53.582;10.062;2023-03-21T04:01:28;101368.22;;;11.10;91.99
17785;BME280;9016;53.582;10.062;2023-03-21T04:03:56;101374.78;;;11.03;93.52
17785;BME280;9016;53.582;10.062;2023-03-21T04:06:38;101372.84;;;11.07;94.56
17785;BME280;9016;53.582;10.062;2023-03-21T04:09:07;101364.28;;;11.17;94.41
17785;BME280;9016;53.582;10.062;2023-03-21T04:11:47;101363.78;;;11.26;93.68
17785;BME280;9016;53.582;10.062;2023-03-21T04:14:15;101369.59;;;11.34;93.08
17785;BME280;9016;53.582;10.062;2023-03-21T04:16:43;101374.13;;;11.32;92.13
17785;BME280;9016;53.582;10.062;2023-03-21T04:19:12;101365.44;;;11.29;92.61
17785;BME280;9016;53.582;10.062;2023-03-21T04:21:41;101371.06;;;11.40;92.62
17785;BME280;9016;53.582;10.062;2023-03-21T04:24:10;101367.34;;;11.42;92.19
17785;BME280;9016;53.582;10.062;2023-03-21T04:26:39;101369.22;;;11.40;91.99
17785;BME280;9016;53.582;10.062;2023-03-21T04:29:09;101370.63;;;11.47;92.47
17785;BME280;9016;53.582;10.062;2023-03-21T04:31:38;101374.78;;;11.53;91.87
17785;BME280;9016;53.582;10.062;2023-03-21T04:34:07;101366.84;;;11.51;91.14
17785;BME280;9016;53.582;10.062;2023-03-21T04:36:38;101370.38;;;11.52;91.48
17785;BME280;9016;53.582;10.062;2023-03-21T04:39:09;101361.69;;;11.48;91.58
17785;BME280;9016;53.582;10.062;2023-03-21T04:41:39;101366.44;;;11.43;91.71
17785;BME280;9016;53.582;10.062;2023-03-21T04:44:10;101362.09;;;11.41;91.65
17785;BME280;9016;53.582;10.062;2023-03-21T04:46:39;101350.56;;;11.40;92.07
17785;BME280;9016;53.582;10.062;2023-03-21T04:49:07;101360.22;;;11.43;91.36
17785;BME280;9016;53.582;10.062;2023-03-21T04:51:36;101356.75;;;11.41;92.13
17785;BME280;9016;53.582;10.062;2023-03-21T04:54:06;101354.19;;;11.55;91.53
17785;BME280;9016;53.582;10.062;2023-03-21T04:56:38;101356.03;;;11.54;91.14
17785;BME280;9016;53.582;10.062;2023-03-21T04:59:10;101356.53;;;11.45;91.30
17785;BME280;9016;53.582;10.062;2023-03-21T05:01:38;101362.97;;;11.41;91.26
17785;BME280;9016;53.582;10.062;2023-03-21T05:04:10;101359.44;;;11.41;92.13
17785;BME280;9016;53.582;10.062;2023-03-21T05:06:39;101358.94;;;11.50;92.03
17785;BME280;9016;53.582;10.062;2023-03-21T05:09:08;101361.13;;;11.42;91.65
17785;BME280;9016;53.582;10.062;2023-03-21T05:11:38;101357.97;;;11.35;92.47
17785;BME280;9016;53.582;10.062;2023-03-21T05:14:09;101365.72;;;11.40;92.83
17785;BME280;9016;53.582;10.062;2023-03-21T05:16:39;101361.13;;;11.42;92.40
17785;BME280;9016;53.582;10.062;2023-03-21T05:19:10;101353.31;;;11.39;93.44
17785;BME280;9016;53.582;10.062;2023-03-21T05:21:39;101365.09;;;11.35;93.81
17785;BME280;9016;53.582;10.062;2023-03-21T05:24:08;101357.63;;;11.41;93.72
17785;BME280;9016;53.582;10.062;2023-03-21T05:26:38;101353.09;;;11.43;93.33
17785;BME280;9016;53.582;10.062;2023-03-21T05:29:06;101354.63;;;11.47;93.85
17785;BME280;9016;53.582;10.062;2023-03-21T05:31:36;101356.69;;;11.42;93.30
17785;BME280;9016;53.582;10.062;2023-03-21T05:34:04;101361.94;;;11.44;93.81
17785;BME280;9016;53.582;10.062;2023-03-21T05:36:32;101354.06;;;11.58;93.04
17785;BME280;9016;53.582;10.062;2023-03-21T05:39:02;101352.16;;;11.60;92.40
17785;BME280;9016;53.582;10.062;2023-03-21T05:41:30;101353.38;;;11.54;92.55
17785;BME280;9016;53.582;10.062;2023-03-21T05:43:58;101345.88;;;11.61;92.75
17785;BME280;9016;53.582;10.062;2023-03-21T05:46:27;101344.53;;;11.69;93.02
17785;BME280;9016;53.582;10.062;2023-03-21T05:48:56;101336.22;;;11.58;92.34
17785;BME280;9016;53.582;10.062;2023-03-21T05:51:24;101343.53;;;11.55;92.73
17785;BME280;9016;53.582;10.062;2023-03-21T05:53:53;101331.06;;;11.55;93.06
17785;BME280;9016;53.582;10.062;2023-03-21T05:56:21;101339.94;;;11.56;92.33
17785;BME280;9016;53.582;10.062;2023-03-21T05:58:49;101332.13;;;11.68;92.42
17785;BME280;9016;53.582;10.062;2023-03-21T06:01:17;101335.00;;;11.64;92.71
17785;BME280;9016;53.582;10.062;2023-03-21T06:03:45;101341.63;;;11.57;93.53
17785;BME280;9016;53.582;10.062;2023-03-21T06:06:14;101342.50;;;11.57;93.61
17785;BME280;9016;53.582;10.062;2023-03-21T06:08:42;101345.78;;;11.62;92.74
17785;BME280;9016;53.582;10.062;2023-03-21T06:11:19;101347.28;;;11.68;92.27
17785;BME280;9016;53.582;10.062;2023-03-21T06:13:49;101340.22;;;11.67;92.57
17785;BME280;9016;53.582;10.062;2023-03-21T06:16:17;101341.00;;;11.69;92.26
17785;BME280;9016;53.582;10.062;2023-03-21T06:18:45;101334.13;;;11.65;92.58
17785;BME280;9016;53.582;10.062;2023-03-21T06:21:15;101334.13;;;11.65;93.07
17785;BME280;9016;53.582;10.062;2023-03-21T06:23:43;101332.22;;;11.67;92.93
17785;BME280;9016;53.582;10.062;2023-03-21T06:26:12;101322.16;;;11.72;92.99
17785;BME280;9016;53.582;10.062;2023-03-21T06:28:40;101323.09;;;11.71;92.34
17785;BME280;9016;53.582;10.062;2023-03-21T06:31:08;101331.13;;;11.71;92.42
17785;BME280;9016;53.582;10.062;2023-03-21T06:33:36;101327.47;;;11.72;92.55
17785;BME280;9016;53.582;10.062;2023-03-21T06:44:23;101327.44;;;10.91;96.48
17785;BME280;9016;53.582;10.062;2023-03-21T06:46:51;101323.38;;;11.01;97.81
17785;BME280;9016;53.582;10.062;2023-03-21T06:49:19;101330.09;;;11.08;97.75
17785;BME280;9016;53.582;10.062;2023-03-21T06:51:47;101327.53;;;11.22;97.66
17785;BME280;9016;53.582;10.062;2023-03-21T06:54:16;101330.66;;;11.30;96.89
17785;BME280;9016;53.582;10.062;2023-03-21T06:56:44;101323.03;;;11.55;95.99
17785;BME280;9016;53.582;10.062;2023-03-21T06:59:13;101330.16;;;11.72;94.81
17785;BME280;9016;53.582;10.062;2023-03-21T07:01:42;101327.31;;;11.90;93.55
17785;BME280;9016;53.582;10.062;2023-03-21T07:04:10;101333.88;;;12.01;92.58
17785;BME280;9016;53.582;10.062;2023-03-21T07:06:39;101333.50;;;12.07;92.28
17785;BME280;9016;53.582;10.062;2023-03-21T07:09:08;101334.81;;;12.15;90.92
17785;BME280;9016;53.582;10.062;2023-03-21T07:11:36;101329.56;;;12.14;90.81
17785;BME280;9016;53.582;10.062;2023-03-21T07:14:04;101339.03;;;12.04;90.23
17785;BME280;9016;53.582;10.062;2023-03-21T07:16:33;101340.41;;;12.11;91.43
17785;BME280;9016;53.582;10.062;2023-03-21T07:19:03;101330.50;;;12.13;90.80
17785;BME280;9016;53.582;10.062;2023-03-21T07:21:31;101337.72;;;12.11;90.71
17785;BME280;9016;53.582;10.062;2023-03-21T07:23:59;101329.72;;;12.11;90.58
17785;BME280;9016;53.582;10.062;2023-03-21T07:26:27;101328.41;;;12.18;90.41
17785;BME280;9016;53.582;10.062;2023-03-21T07:28:56;101335.91;;;12.27;90.47
17785;BME280;9016;53.582;10.062;2023-03-21T07:31:27;101337.03;;;12.23;89.54
17785;BME280;9016;53.582;10.062;2023-03-21T07:33:56;101333.84;;;12.32;90.07
17785;BME280;9016;53.582;10.062;2023-03-21T07:36:25;101333.56;;;12.36;89.71
17785;BME280;9016;53.582;10.062;2023-03-21T07:38:54;101331.84;;;12.35;89.90
17785;BME280;9016;53.582;10.062;2023-03-21T07:41:22;101334.63;;;12.34;89.56
17785;BME280;9016;53.582;10.062;2023-03-21T07:43:50;101330.88;;;12.36;89.48
17785;BME280;9016;53.582;10.062;2023-03-21T07:46:18;101330.03;;;12.36;90.13
17785;BME280;9016;53.582;10.062;2023-03-21T07:48:46;101339.91;;;12.49;89.15
17785;BME280;9016;53.582;10.062;2023-03-21T07:51:14;101335.84;;;12.58;88.86
17785;BME280;9016;53.582;10.062;2023-03-21T07:53:44;101327.22;;;12.53;88.65
17785;BME280;9016;53.582;10.062;2023-03-21T07:56:14;101328.00;;;12.55;88.15
17785;BME280;9016;53.582;10.062;2023-03-21T07:58:42;101330.50;;;12.58;88.89
17785;BME280;9016;53.582;10.062;2023-03-21T08:01:10;101329.44;;;12.60;88.99
17785;BME280;9016;53.582;10.062;2023-03-21T08:03:38;101333.19;;;12.58;88.81
17785;BME280;9016;53.582;10.062;2023-03-21T08:06:07;101336.53;;;12.61;89.00
17785;BME280;9016;53.582;10.062;2023-03-21T08:08:36;101328.19;;;12.52;89.47
17785;BME280;9016;53.582;10.062;2023-03-21T08:11:06;101335.78;;;12.44;88.82
17785;BME280;9016;53.582;10.062;2023-03-21T08:13:34;101333.47;;;12.38;90.86
17785;BME280;9016;53.582;10.062;2023-03-21T08:16:02;101326.59;;;12.34;91.42
17785;BME280;9016;53.582;10.062;2023-03-21T08:18:30;101323.69;;;12.23;91.36
17785;BME280;9016;53.582;10.062;2023-03-21T08:20:58;101332.38;;;12.26;92.22
17785;BME280;9016;53.582;10.062;2023-03-21T08:23:26;101326.41;;;12.37;92.48
17785;BME280;9016;53.582;10.062;2023-03-21T08:25:56;101319.84;;;12.42;91.19
17785;BME280;9016;53.582;10.062;2023-03-21T08:28:25;101327.41;;;12.50;91.28
17785;BME280;9016;53.582;10.062;2023-03-21T08:30:53;101316.66;;;12.65;91.18
17785;BME280;9016;53.582;10.062;2023-03-21T08:33:22;101321.56;;;12.73;90.12
17785;BME280;9016;53.582;10.062;2023-03-21T08:35:50;101320.63;;;12.74;89.94
17785;BME280;9016;53.582;10.062;2023-03-21T08:38:18;101320.06;;;12.83;89.27
17785;BME280;9016;53.582;10.062;2023-03-21T08:40:47;101317.50;;;12.95;88.54
17785;BME280;9016;53.582;10.062;2023-03-21T08:43:14;101322.19;;;12.92;88.05
17785;BME280;9016;53.582;10.062;2023-03-21T08:45:44;101314.19;;;12.76;88.37
17785;BME280;9016;53.582;10.062;2023-03-21T08:48:12;101311.47;;;12.78;89.27
17785;BME280;9016;53.582;10.062;2023-03-21T08:50:40;101315.13;;;12.91;89.29
17785;BME280;9016;53.582;10.062;2023-03-21T08:53:08;101317.75;;;12.77;88.86
17785;BME280;9016;53.582;10.062;2023-03-21T08:55:36;101324.06;;;12.90;89.11
17785;BME280;9016;53.582;10.062;2023-03-21T08:58:05;101326.28;;;12.83;88.55
17785;BME280;9016;53.582;10.062;2023-03-21T09:00:33;101326.41;;;12.96;88.77
17785;BME280;9016;53.582;10.062;2023-03-21T09:03:02;101313.13;;;12.94;88.24
17785;BME280;9016;53.582;10.062;2023-03-21T09:05:30;101327.78;;;12.87;89.37
17785;BME280;9016;53.582;10.062;2023-03-21T09:07:59;101312.44;;;12.91;89.25
17785;BME280;9016;53.582;10.062;2023-03-21T09:10:29;101323.22;;;12.89;88.76
17785;BME280;9016;53.582;10.062;2023-03-21T09:12:57;101312.91;;;12.98;88.23
17785;BME280;9016;53.582;10.062;2023-03-21T09:15:26;101315.84;;;12.93;88.31
17785;BME280;9016;53.582;10.062;2023-03-21T09:17:56;101310.72;;;12.90;88.19
17785;BME280;9016;53.582;10.062;2023-03-21T09:20:40;101318.63;;;12.91;87.77
17785;BME280;9016;53.582;10.062;2023-03-21T09:23:09;101312.06;;;12.97;89.20
17785;BME280;9016;53.582;10.062;2023-03-21T09:25:39;101308.06;;;13.04;88.26
17785;BME280;9016;53.582;10.062;2023-03-21T09:28:07;101316.47;;;12.98;87.61
17785;BME280;9016;53.582;10.062;2023-03-21T09:30:36;101309.72;;;13.07;88.54
17785;BME280;9016;53.582;10.062;2023-03-21T09:33:05;101310.56;;;13.21;87.59
17785;BME280;9016;53.582;10.062;2023-03-21T09:35:35;101320.38;;;12.92;86.47
17785;BME280;9016;53.582;10.062;2023-03-21T09:38:05;101311.44;;;13.08;88.14
17785;BME280;9016;53.582;10.062;2023-03-21T09:40:54;101313.25;;;13.21;86.58
17785;BME280;9016;53.582;10.062;2023-03-21T09:43:33;101310.19;;;13.27;86.36
17785;BME280;9016;53.582;10.062;2023-03-21T09:46:07;101298.81;;;13.38;86.27
17785;BME280;9016;53.582;10.062;2023-03-21T09:48:42;101310.09;;;13.57;85.23
17785;BME280;9016;53.582;10.062;2023-03-21T09:51:25;101305.19;;;13.63;84.53
17785;BME280;9016;53.582;10.062;2023-03-21T09:53:59;101308.81;;;13.76;84.06
17785;BME280;9016;53.582;10.062;2023-03-21T09:56:28;101303.94;;;13.69;83.61
17785;BME280;9016;53.582;10.062;2023-03-21T09:58:58;101304.59;;;13.72;84.50
17785;BME280;9016;53.582;10.062;2023-03-21T10:01:29;101299.56;;;13.68;84.53
17785;BME280;9016;53.582;10.062;2023-03-21T10:04:04;101304.53;;;13.74;84.26
17785;BME280;9016;53.582;10.062;2023-03-21T10:06:34;101297.38;;;13.60;84.70
17785;BME280;9016;53.582;10.062;2023-03-21T10:09:10;101305.31;;;13.62;84.44
17785;BME280;9016;53.582;10.062;2023-03-21T10:11:43;101298.78;;;13.66;85.00
17785;BME280;9016;53.582;10.062;2023-03-21T10:14:16;101297.47;;;13.45;84.43
17785;BME280;9016;53.582;10.062;2023-03-21T10:16:48;101300.56;;;13.39;86.14
17785;BME280;9016;53.582;10.062;2023-03-21T10:19:18;101290.19;;;13.47;86.19
17785;BME280;9016;53.582;10.062;2023-03-21T10:21:47;101302.34;;;13.52;86.61
17785;BME280;9016;53.582;10.062;2023-03-21T10:24:33;101290.09;;;13.62;85.95
17785;BME280;9016;53.582;10.062;2023-03-21T10:27:02;101287.69;;;13.72;85.91
17785;BME280;9016;53.582;10.062;2023-03-21T10:29:33;101285.31;;;13.67;86.99
17785;BME280;9016;53.582;10.062;2023-03-21T10:32:02;101282.50;;;13.83;85.98
17785;BME280;9016;53.582;10.062;2023-03-21T10:34:34;101283.28;;;13.71;85.42
17785;BME280;9016;53.582;10.062;2023-03-21T10:37:04;101280.81;;;13.68;86.42
17785;BME280;9016;53.582;10.062;2023-03-21T10:39:36;101273.84;;;13.51;86.52
17785;BME280;9016;53.582;10.062;2023-03-21T10:42:08;101285.91;;;13.58;86.79
17785;BME280;9016;53.582;10.062;2023-03-21T10:44:45;101281.47;;;13.71;87.65
17785;BME280;9016;53.582;10.062;2023-03-21T10:47:19;101282.41;;;13.70;86.80
17785;BME280;9016;53.582;10.062;2023-03-21T10:49:48;101273.66;;;13.68;87.35
17785;BME280;9016;53.582;10.062;2023-03-21T10:52:33;101277.47;;;13.64;87.68
17785;BME280;9016;53.582;10.062;2023-03-21T10:55:16;101284.53;;;13.79;87.19
17785;BME280;9016;53.582;10.062;2023-03-21T10:57:45;101272.50;;;13.58;87.23
17785;BME280;9016;53.582;10.062;2023-03-21T11:00:19;101272.50;;;13.58;87.82
17785;BME280;9016;53.582;10.062;2023-03-21T11:02:49;101272.22;;;13.63;86.17
17785;BME280;9016;53.582;10.062;2023-03-21T11:05:21;101266.44;;;13.69;87.19
17785;BME280;9016;53.582;10.062;2023-03-21T11:08:00;101256.59;;;13.69;85.87
17785;BME280;9016;53.582;10.062;2023-03-21T11:10:32;101256.53;;;13.43;87.78
17785;BME280;9016;53.582;10.062;2023-03-21T11:13:05;101266.69;;;13.52;87.75
17785;BME280;9016;53.582;10.062;2023-03-21T11:15:41;101257.31;;;13.45;87.62
17785;BME280;9016;53.582;10.062;2023-03-21T11:18:18;101257.81;;;13.23;89.08
17785;BME280;9016;53.582;10.062;2023-03-21T11:20:52;101255.06;;;13.39;90.51
17785;BME280;9016;53.582;10.062;2023-03-21T11:23:26;101256.81;;;13.52;88.53
17785;BME280;9016;53.582;10.062;2023-03-21T11:25:58;101255.72;;;13.42;89.07
17785;BME280;9016;53.582;10.062;2023-03-21T11:28:32;101252.81;;;13.45;90.19
17785;BME280;9016;53.582;10.062;2023-03-21T11:31:01;101257.06;;;13.35;90.40
17785;BME280;9016;53.582;10.062;2023-03-21T11:33:33;101252.53;;;13.50;90.58
17785;BME280;9016;53.582;10.062;2023-03-21T11:36:04;101242.34;;;13.69;90.49
17785;BME280;9016;53.582;10.062;2023-03-21T11:38:36;101247.97;;;13.78;88.89
17785;BME280;9016;53.582;10.062;2023-03-21T11:41:06;101246.59;;;13.85;89.44
17785;BME280;9016;53.582;10.062;2023-03-21T11:43:35;101244.91;;;13.84;88.82
17785;BME280;9016;53.582;10.062;2023-03-21T11:46:08;101243.31;;;13.94;88.08
17785;BME280;9016;53.582;10.062;2023-03-21T11:48:39;101238.44;;;14.01;88.42
17785;BME280;9016;53.582;10.062;2023-03-21T11:51:15;101232.22;;;14.13;87.17
17785;BME280;9016;53.582;10.062;2023-03-21T11:53:48;101230.13;;;14.18;86.91
17785;BME280;9016;53.582;10.062;2023-03-21T11:56:24;101225.94;;;14.14;85.89
17785;BME280;9016;53.582;10.062;2023-03-21T11:59:12;101219.41;;;14.18;85.02
17785;BME280;9016;53.582;10.062;2023-03-21T12:02:02;101227.19;;;14.09;85.84
17785;BME280;9016;53.582;10.062;2023-03-21T12:04:38;101219.81;;;14.12;86.58
17785;BME280;9016;53.582;10.062;2023-03-21T12:07:31;101222.25;;;14.15;85.66
17785;BME280;9016;53.582;10.062;2023-03-21T12:10:18;101209.06;;;14.00;86.60
17785;BME280;9016;53.582;10.062;2023-03-21T12:12:55;101212.16;;;14.06;86.60
17785;BME280;9016;53.582;10.062;2023-03-21T12:15:31;101205.75;;;14.09;85.53
17785;BME280;9016;53.582;10.062;2023-03-21T12:18:08;101205.09;;;14.05;86.75
17785;BME280;9016;53.582;10.062;2023-03-21T12:20:39;101204.81;;;14.22;85.01
17785;BME280;9016;53.582;10.062;2023-03-21T12:23:34;101201.63;;;14.30;84.77
17785;BME280;9016;53.582;10.062;2023-03-21T12:26:13;101189.97;;;14.43;84.23
17785;BME280;9016;53.582;10.062;2023-03-21T12:28:57;101198.78;;;14.45;82.81
17785;BME280;9016;53.582;10.062;2023-03-21T12:31:34;101192.44;;;14.34;83.34
17785;BME280;9016;53.582;10.062;2023-03-21T12:34:16;101190.44;;;14.23;81.86
17785;BME280;9016;53.582;10.062;2023-03-21T12:37:02;101185.03;;;14.37;84.02
17785;BME280;9016;53.582;10.062;2023-03-21T12:39:34;101184.72;;;14.29;82.82
17785;BME280;9016;53.582;10.062;2023-03-21T12:42:16;101184.38;;;14.34;81.67
17785;BME280;9016;53.582;10.062;2023-03-21T12:44:50;101178.59;;;14.27;82.89
17785;BME280;9016;53.582;10.062;2023-03-21T12:47:23;101177.09;;;14.36;82.91
17785;BME280;9016;53.582;10.062;2023-03-21T12:49:57;101169.91;;;14.36;82.54
17785;BME280;9016;53.582;10.062;2023-03-21T12:52:29;101173.63;;;14.21;82.81
17785;BME280;9016;53.582;10.062;2023-03-21T12:55:00;101170.56;;;14.01;82.94
17785;BME280;9016;53.582;10.062;2023-03-21T12:57:31;101164.75;;;13.81;84.02
17785;BME280;9016;53.582;10.062;2023-03-21T13:00:08;101165.34;;;13.72;84.85
17785;BME280;9016;53.582;10.062;2023-03-21T13:02:42;101152.91;;;13.71;85.05
17785;BME280;9016;53.582;10.062;2023-03-21T13:05:17;101161.34;;;13.65;85.41
17785;BME280;9016;53.582;10.062;2023-03-21T13:07:49;101153.84;;;13.70;85.82
17785;BME280;9016;53.582;10.062;2023-03-21T13:10:20;101152.44;;;13.65;85.00
17785;BME280;9016;53.582;10.062;2023-03-21T13:13:02;101156.03;;;13.78;84.84
17785;BME280;9016;53.582;10.062;2023-03-21T13:15:54;101146.00;;;13.81;84.92
17785;BME280;9016;53.582;10.062;2023-03-21T13:18:49;101140.19;;;13.75;84.67
17785;BME280;9016;53.582;10.062;2023-03-21T13:21:24;101137.19;;;13.79;85.24
17785;BME280;9016;53.582;10.062;2023-03-21T13:24:00;101133.31;;;13.71;86.20
17785;BME280;9016;53.582;10.062;2023-03-21T13:26:32;101139.38;;;13.87;86.03
17785;BME280;9016;53.582;10.062;2023-03-21T13:29:00;101137.00;;;13.95;84.77
17785;BME280;9016;53.582;10.062;2023-03-21T13:31:29;101128.09;;;13.94;85.94